Time;durP1;ratioP1;P1;durP2;ratioP2;P2;SDS_P1;SDS_P2;PMS_P1;PMS_P2;Temp;Humidity;BMP_temperature;BMP_pressure;BME280_temperature;BME280_humidity;BME280_pressure;Samples;Min_cycle;Max_cycle;Signal;HPM_P1;HPM_P2
2022/04/24 00:01:38;;;;;;;;;;;;;;;9.08;100.00;98474.88;5070068;28;20280;-74
2022/04/24 00:04:05;;;;;;;;;;;;;;;9.29;100.00;98478.44;5070370;27;19959;-74
2022/04/24 00:06:32;;;;;;;;;;;;;;;9.31;100.00;98473.22;5087523;28;19931;-74
2022/04/24 00:08:59;;;;;;;;;;;;;;;9.26;100.00;98491.22;5089939;28;19931;-74
2022/04/24 00:11:26;;;;;;;;;;;;;;;9.26;100.00;98490.44;5089592;28;20006;-74
2022/04/24 00:13:54;;;;;;;;;;;;;;;9.42;100.00;98485.72;5089374;28;19931;-75
2022/04/24 00:16:21;;;;;;;;;;;;;;;9.32;100.00;98489.53;5089322;28;19932;-73
2022/04/24 00:18:48;;;;;;;;;;;;;;;9.51;100.00;98490.75;5089671;28;19924;-74
2022/04/24 00:21:15;;;;;;;;;;;;;;;9.26;100.00;98476.50;5089441;28;19960;-74
2022/04/24 00:23:43;;;;;;;;;;;;;;;9.31;100.00;98495.53;5083531;28;20311;-73
2022/04/24 00:26:10;;;;;;;;;;;;;;;9.43;100.00;98490.09;5076403;28;19925;-74
2022/04/24 00:28:37;;;;;;;;;;;;;;;9.10;100.00;98494.72;5074842;28;19928;-74
2022/04/24 00:31:04;;;;;;;;;;;;;;;9.57;100.00;98495.38;5076439;28;19928;-74
2022/04/24 00:33:31;;;;;;;;;;;;;;;9.40;100.00;98493.75;5075982;28;19946;-75
2022/04/24 00:35:58;;;;;;;;;;;;;;;9.67;100.00;98491.56;5076289;28;19930;-75
2022/04/24 00:38:25;;;;;;;;;;;;;;;9.30;100.00;98486.38;5076371;28;19947;-79
2022/04/24 00:40:54;;;;;;;;;;;;;;;9.41;100.00;98498.09;5058586;28;20411;-75
2022/04/24 00:43:21;;;;;;;;;;;;;;;9.66;100.00;98492.00;5074713;28;19952;-75
2022/04/24 00:46:38;;;;;;;;;;;;;;;9.93;100.00;98490.59;5066151;28;19964;-74
2022/04/24 00:49:05;;;;;;;;;;;;;;;9.59;100.00;98489.38;5075941;28;19925;-75
2022/04/24 00:51:32;;;;;;;;;;;;;;;9.61;100.00;98498.09;5075922;28;19924;-75
2022/04/24 00:53:59;;;;;;;;;;;;;;;9.46;100.00;98494.03;5075831;28;19932;-75
2022/04/24 00:56:30;;;;;;;;;;;;;;;9.46;100.00;98494.81;5075875;28;19924;-75
2022/04/24 00:58:58;;;;;;;;;;;;;;;9.78;100.00;98482.97;5075814;28;19924;-75
2022/04/24 01:01:26;;;;;;;;;;;;;;;9.38;100.00;98492.56;5075932;28;19925;-75
2022/04/24 01:03:54;;;;;;;;;;;;;;;9.55;100.00;98494.22;5075839;28;19928;-75
2022/04/24 01:06:21;;;;;;;;;;;;;;;9.82;100.00;98492.03;5074514;28;19974;-75
2022/04/24 01:08:48;;;;;;;;;;;;;;;9.32;100.00;98491.50;5074449;28;19940;-75
2022/04/24 01:11:15;;;;;;;;;;;;;;;9.72;100.00;98499.44;5075213;28;19924;-75
2022/04/24 01:13:42;;;;;;;;;;;;;;;9.63;100.00;98498.44;5075024;28;19924;-75
2022/04/24 01:16:10;;;;;;;;;;;;;;;9.37;100.00;98497.38;5075379;28;19939;-75
2022/04/24 01:18:37;;;;;;;;;;;;;;;9.08;100.00;98488.81;5075479;28;19925;-75
2022/04/24 01:21:08;;;;;;;;;;;;;;;9.02;100.00;98493.28;5075243;28;19931;-75
2022/04/24 01:23:35;;;;;;;;;;;;;;;9.40;100.00;98490.16;5074878;28;19930;-75
2022/04/24 01:26:02;;;;;;;;;;;;;;;9.29;100.00;98489.56;5075294;28;19924;-75
2022/04/24 01:28:29;;;;;;;;;;;;;;;9.25;100.00;98488.88;5075177;28;19924;-74
2022/04/24 01:30:56;;;;;;;;;;;;;;;9.01;100.00;98497.28;5075229;28;19939;-74
2022/04/24 01:33:23;;;;;;;;;;;;;;;9.15;100.00;98491.44;5107799;28;19928;-74
2022/04/24 01:35:50;;;;;;;;;;;;;;;8.96;100.00;98481.06;5072925;28;19924;-74
2022/04/24 01:38:17;;;;;;;;;;;;;;;9.13;100.00;98488.28;5075209;28;19924;-74
2022/04/24 01:40:44;;;;;;;;;;;;;;;9.25;100.00;98484.09;5074960;28;19925;-74
2022/04/24 01:43:11;;;;;;;;;;;;;;;9.18;100.00;98501.72;5074905;28;19947;-74
2022/04/24 01:45:39;;;;;;;;;;;;;;;9.00;100.00;98489.34;5057192;28;20391;-74
2022/04/24 01:48:06;;;;;;;;;;;;;;;8.78;100.00;98488.94;5074763;28;19929;-74
2022/04/24 01:50:33;;;;;;;;;;;;;;;8.88;100.00;98493.56;5074815;28;19928;-74
2022/04/24 01:53:00;;;;;;;;;;;;;;;9.06;100.00;98493.22;5074786;28;19924;-74
2022/04/24 01:55:27;;;;;;;;;;;;;;;8.82;100.00;98484.13;5074485;28;19924;-74
2022/04/24 01:57:54;;;;;;;;;;;;;;;8.76;100.00;98474.66;5073399;28;20302;-74
2022/04/24 02:00:21;;;;;;;;;;;;;;;8.70;100.00;98486.72;5074600;28;19968;-74
2022/04/24 02:02:48;;;;;;;;;;;;;;;8.75;100.00;98489.78;5074563;28;19931;-74
2022/04/24 02:05:15;;;;;;;;;;;;;;;8.63;100.00;98475.72;5074420;28;19928;-76
2022/04/24 02:07:42;;;;;;;;;;;;;;;8.58;100.00;98479.78;5073424;28;19925;-74
2022/04/24 02:10:09;;;;;;;;;;;;;;;8.84;100.00;98480.91;5074275;28;19924;-74
2022/04/24 02:12:40;;;;;;;;;;;;;;;8.81;100.00;98473.41;5074101;28;19931;-74
2022/04/24 02:15:07;;;;;;;;;;;;;;;9.00;100.00;98480.97;5074299;28;20338;-74
2022/04/24 02:17:34;;;;;;;;;;;;;;;8.59;100.00;98481.34;5072880;28;20275;-74
2022/04/24 02:20:02;;;;;;;;;;;;;;;8.56;100.00;98490.53;5073757;28;19960;-74
2022/04/24 02:22:33;;;;;;;;;;;;;;;8.63;100.00;98489.63;5074174;28;20295;-74
2022/04/24 02:25:01;;;;;;;;;;;;;;;8.60;100.00;98493.28;5073302;28;20013;-74
2022/04/24 02:27:29;;;;;;;;;;;;;;;8.52;100.00;98487.03;5074120;28;20378;-75
2022/04/24 02:29:56;;;;;;;;;;;;;;;8.68;100.00;98491.91;5072445;28;20022;-74
2022/04/24 02:32:23;;;;;;;;;;;;;;;8.71;100.00;98489.06;5073266;28;21650;-74
2022/04/24 02:34:50;;;;;;;;;;;;;;;8.69;100.00;98491.50;5073721;28;19987;-74
2022/04/24 02:37:17;;;;;;;;;;;;;;;8.46;100.00;98499.88;5074024;28;20445;-73
2022/04/24 02:39:44;;;;;;;;;;;;;;;8.43;100.00;98492.34;5073687;28;19947;-73
2022/04/24 02:42:12;;;;;;;;;;;;;;;8.66;100.00;98486.00;5073772;28;20303;-73
2022/04/24 02:44:39;;;;;;;;;;;;;;;8.59;100.00;98486.91;5073859;28;20299;-73
2022/04/24 02:47:07;;;;;;;;;;;;;;;8.62;100.00;98494.41;5072397;28;19964;-73
2022/04/24 02:49:34;;;;;;;;;;;;;;;8.53;100.00;98493.38;5073564;28;19925;-73
2022/04/24 02:52:01;;;;;;;;;;;;;;;8.53;100.00;98494.16;5038882;28;20321;-73
2022/04/24 02:54:28;;;;;;;;;;;;;;;8.63;100.00;98498.75;5055644;28;20383;-73
2022/04/24 02:56:55;;;;;;;;;;;;;;;8.57;100.00;98497.66;5072574;28;19925;-73
2022/04/24 02:59:25;;;;;;;;;;;;;;;8.49;100.00;98498.22;5072366;28;20028;-73
2022/04/24 03:01:54;;;;;;;;;;;;;;;8.98;100.00;98497.38;5073579;28;19925;-74
2022/04/24 03:04:21;;;;;;;;;;;;;;;8.71;100.00;98497.44;5073634;28;19925;-74
2022/04/24 03:06:49;;;;;;;;;;;;;;;8.66;100.00;98503.47;5072392;28;19925;-74
2022/04/24 03:09:16;;;;;;;;;;;;;;;8.67;100.00;98505.06;5073121;28;20295;-74
2022/04/24 03:11:44;;;;;;;;;;;;;;;8.61;100.00;98505.97;5072323;28;19940;-74
2022/04/24 03:14:15;;;;;;;;;;;;;;;8.51;100.00;98499.38;5072187;28;20017;-74
2022/04/24 03:16:43;;;;;;;;;;;;;;;8.32;100.00;98504.84;5073621;28;19924;-74
2022/04/24 03:19:10;;;;;;;;;;;;;;;8.73;100.00;98508.94;5073214;28;20298;-74
2022/04/24 03:21:37;;;;;;;;;;;;;;;8.50;100.00;98511.72;5073419;28;19931;-74
2022/04/24 03:24:04;;;;;;;;;;;;;;;8.49;100.00;98521.28;5072823;28;20359;-74
2022/04/24 03:26:31;;;;;;;;;;;;;;;8.73;100.00;98520.09;5072359;28;20355;-74
2022/04/24 03:28:58;;;;;;;;;;;;;;;8.63;100.00;98521.03;5072092;28;20312;-74
2022/04/24 03:31:25;;;;;;;;;;;;;;;8.30;100.00;98519.19;5073414;28;20456;-74
2022/04/24 03:33:52;;;;;;;;;;;;;;;8.62;100.00;98519.47;5055221;28;20268;-74
2022/04/24 03:36:19;;;;;;;;;;;;;;;8.46;100.00;98526.91;5073296;28;19952;-74
2022/04/24 03:38:48;;;;;;;;;;;;;;;8.58;100.00;98529.91;5073225;28;19925;-74
2022/04/24 03:41:14;;;;;;;;;;;;;;;8.58;100.00;98524.31;5071930;28;19929;-74
2022/04/24 03:43:42;;;;;;;;;;;;;;;8.64;100.00;98528.19;5073412;28;20383;-74
2022/04/24 03:46:09;;;;;;;;;;;;;;;8.56;100.00;98531.50;5073376;28;20376;-74
2022/04/24 03:48:36;;;;;;;;;;;;;;;8.42;100.00;98532.53;5072148;28;19924;-74
2022/04/24 03:51:04;;;;;;;;;;;;;;;8.38;100.00;98531.81;5072527;28;20016;-74
2022/04/24 03:53:31;;;;;;;;;;;;;;;8.40;100.00;98537.75;5071890;28;20014;-74
2022/04/24 03:55:58;;;;;;;;;;;;;;;8.30;100.00;98530.31;5073306;28;19924;-74
2022/04/24 03:58:25;;;;;;;;;;;;;;;8.17;100.00;98526.53;5073813;28;20017;-73
2022/04/24 04:00:53;;;;;;;;;;;;;;;8.26;100.00;98529.59;5076928;28;19925;-74
2022/04/24 04:03:20;;;;;;;;;;;;;;;8.29;100.00;98525.97;5077019;28;20358;-73
2022/04/24 04:05:47;;;;;;;;;;;;;;;8.42;100.00;98535.31;5076754;28;19925;-74
2022/04/24 04:08:14;;;;;;;;;;;;;;;8.45;100.00;98525.34;5075508;28;20398;-74
2022/04/24 04:10:43;;;;;;;;;;;;;;;8.23;100.00;98519.31;5075534;28;19942;-74
2022/04/24 04:13:11;;;;;;;;;;;;;;;8.50;100.00;98522.84;5076791;28;20386;-73
2022/04/24 04:15:39;;;;;;;;;;;;;;;8.28;100.00;98524.41;5076874;28;19924;-73
2022/04/24 04:18:06;;;;;;;;;;;;;;;8.27;100.00;98519.28;5077103;28;19929;-73
2022/04/24 04:20:33;;;;;;;;;;;;;;;8.19;100.00;98524.13;5076111;28;20553;-75
2022/04/24 04:23:03;;;;;;;;;;;;;;;7.95;100.00;98533.59;5075515;28;19986;-74
2022/04/24 04:25:30;;;;;;;;;;;;;;;8.15;100.00;98523.38;5075504;28;19928;-75
2022/04/24 04:27:57;;;;;;;;;;;;;;;8.35;100.00;98527.09;5076593;28;19924;-75
2022/04/24 04:30:25;;;;;;;;;;;;;;;8.07;100.00;98513.56;5075179;28;19928;-75
2022/04/24 04:32:52;;;;;;;;;;;;;;;8.33;100.00;98523.91;5056595;28;19929;-74
2022/04/24 04:35:22;;;;;;;;;;;;;;;8.17;100.00;98526.53;5062877;28;20348;-74
2022/04/24 04:37:49;;;;;;;;;;;;;;;8.11;100.00;98533.78;5064255;28;19928;-74
2022/04/24 04:40:18;;;;;;;;;;;;;;;8.22;100.00;98526.09;5076204;28;19924;-75
2022/04/24 04:42:46;;;;;;;;;;;;;;;8.20;100.00;98531.25;5076131;28;19932;-75
2022/04/24 04:45:13;;;;;;;;;;;;;;;8.05;100.00;98527.13;5076336;28;20413;-75
2022/04/24 04:47:40;;;;;;;;;;;;;;;8.05;100.00;98529.09;5076405;28;19931;-74
2022/04/24 04:50:07;;;;;;;;;;;;;;;8.13;100.00;98528.59;5069465;28;20295;-75
2022/04/24 04:52:35;;;;;;;;;;;;;;;8.22;100.00;98528.88;5068096;28;19935;-75
2022/04/24 04:55:03;;;;;;;;;;;;;;;8.03;100.00;98520.38;5056003;28;19925;-74
2022/04/24 04:57:30;;;;;;;;;;;;;;;7.92;100.00;98519.75;5070660;28;19928;-74
2022/04/24 04:59:58;;;;;;;;;;;;;;;8.08;100.00;98534.63;5074653;28;19925;-74
2022/04/24 05:02:25;;;;;;;;;;;;;;;8.14;100.00;98527.38;5076075;28;19928;-74
2022/04/24 05:04:52;;;;;;;;;;;;;;;7.90;100.00;98520.19;5075784;28;19931;-74
2022/04/24 05:07:19;;;;;;;;;;;;;;;8.04;100.00;98539.44;5075970;28;19924;-74
2022/04/24 05:09:47;;;;;;;;;;;;;;;7.91;100.00;98534.84;5074244;28;20382;-73
2022/04/24 05:12:14;;;;;;;;;;;;;;;7.94;100.00;98539.56;5071735;28;19936;-73
2022/04/24 05:14:41;;;;;;;;;;;;;;;8.12;100.00;98535.34;5062192;28;19925;-73
2022/04/24 05:17:09;;;;;;;;;;;;;;;7.97;100.00;98528.41;5056601;28;20372;-73
2022/04/24 05:19:36;;;;;;;;;;;;;;;8.11;100.00;98530.19;5075233;28;19925;-74
2022/04/24 05:22:04;;;;;;;;;;;;;;;8.04;100.00;98542.22;5075687;28;19970;-74
2022/04/24 05:24:31;;;;;;;;;;;;;;;8.08;100.00;98537.41;5057780;28;19925;-74
2022/04/24 05:27:01;;;;;;;;;;;;;;;8.16;100.00;98530.53;5074022;28;20380;-74
2022/04/24 05:29:28;;;;;;;;;;;;;;;8.13;100.00;98542.50;5075093;28;19930;-74
2022/04/24 05:32:00;;;;;;;;;;;;;;;7.98;100.00;98551.47;5075161;28;19924;-74
2022/04/24 05:34:46;;;;;;;;;;;;;;;7.93;100.00;98549.94;5090798;28;19924;-74
2022/04/24 05:37:14;;;;;;;;;;;;;;;7.80;100.00;98548.13;5075196;28;19924;-74
2022/04/24 05:39:44;;;;;;;;;;;;;;;7.92;100.00;98558.69;5070064;28;19948;-74
2022/04/24 05:42:16;;;;;;;;;;;;;;;8.07;100.00;98555.31;5055077;28;19924;-74
2022/04/24 05:44:43;;;;;;;;;;;;;;;7.95;100.00;98558.63;5053825;28;19925;-73
2022/04/24 05:47:11;;;;;;;;;;;;;;;8.08;100.00;98562.44;5054777;28;20018;-73
2022/04/24 05:49:38;;;;;;;;;;;;;;;7.99;100.00;98564.97;5069682;28;19928;-73
2022/04/24 05:52:08;;;;;;;;;;;;;;;8.10;100.00;98562.03;5074894;28;19962;-72
2022/04/24 05:54:35;;;;;;;;;;;;;;;8.20;100.00;98567.44;5074645;28;19967;-74
2022/04/24 05:57:04;;;;;;;;;;;;;;;8.18;100.00;98564.28;5074675;28;20007;-74
2022/04/24 05:59:37;;;;;;;;;;;;;;;8.44;100.00;98569.09;5074413;28;20407;-73
2022/04/24 06:02:04;;;;;;;;;;;;;;;8.30;100.00;98579.66;5074356;28;19925;-74
2022/04/24 06:04:31;;;;;;;;;;;;;;;8.13;100.00;98578.69;5074562;28;19924;-73
2022/04/24 06:06:58;;;;;;;;;;;;;;;8.19;100.00;98579.78;5073523;28;20379;-75
2022/04/24 06:09:25;;;;;;;;;;;;;;;8.22;100.00;98584.53;5055965;28;19935;-74
2022/04/24 06:11:58;;;;;;;;;;;;;;;8.29;100.00;98584.44;5071211;28;19935;-74
2022/04/24 06:14:25;;;;;;;;;;;;;;;8.32;100.00;98588.38;5072355;28;19928;-75
2022/04/24 06:16:52;;;;;;;;;;;;;;;8.07;100.00;98585.13;5070413;28;19968;-75
2022/04/24 06:19:20;;;;;;;;;;;;;;;8.18;100.00;98599.69;5073096;28;19925;-74
2022/04/24 06:21:47;;;;;;;;;;;;;;;8.14;100.00;98610.84;5073600;28;20011;-74
2022/04/24 06:24:14;;;;;;;;;;;;;;;8.34;100.00;98609.03;5065032;28;20019;-73
2022/04/24 06:26:44;;;;;;;;;;;;;;;8.35;100.00;98593.88;5054276;28;19929;-79
2022/04/24 06:29:12;;;;;;;;;;;;;;;8.16;100.00;98608.44;5062431;28;19971;-74
2022/04/24 06:31:42;;;;;;;;;;;;;;;8.37;100.00;98597.03;5071800;28;19924;-76
2022/04/24 06:34:13;;;;;;;;;;;;;;;8.48;100.00;98592.09;5066478;28;19933;-75
2022/04/24 06:36:41;;;;;;;;;;;;;;;8.42;100.00;98593.00;5075230;28;19928;-74
2022/04/24 06:39:08;;;;;;;;;;;;;;;8.33;100.00;98603.88;5073363;28;19931;-74
2022/04/24 06:41:35;;;;;;;;;;;;;;;8.38;100.00;98608.94;5072562;28;19924;-73
2022/04/24 06:44:02;;;;;;;;;;;;;;;8.32;100.00;98597.50;5071925;28;20066;-73
2022/04/24 06:46:29;;;;;;;;;;;;;;;8.57;100.00;98584.00;5072078;28;20019;-73
2022/04/24 06:48:56;;;;;;;;;;;;;;;8.91;100.00;98597.78;5073465;28;19964;-74
2022/04/24 06:51:23;;;;;;;;;;;;;;;8.52;100.00;98592.84;5073563;28;20015;-73
2022/04/24 06:53:50;;;;;;;;;;;;;;;8.83;100.00;98590.75;5073649;28;19924;-73
2022/04/24 06:56:18;;;;;;;;;;;;;;;8.84;100.00;98598.69;5071884;28;20388;-75
2022/04/24 06:58:45;;;;;;;;;;;;;;;9.59;100.00;98598.91;5071574;28;19932;-76
2022/04/24 07:01:13;;;;;;;;;;;;;;;9.34;100.00;98595.81;5071118;28;19924;-76
2022/04/24 07:03:40;;;;;;;;;;;;;;;9.57;100.00;98606.16;5064522;28;19933;-75
2022/04/24 07:06:07;;;;;;;;;;;;;;;9.15;100.00;98614.06;5067145;28;20023;-75
2022/04/24 07:08:35;;;;;;;;;;;;;;;10.07;100.00;98606.75;5067124;28;20288;-76
2022/04/24 07:11:14;;;;;;;;;;;;;;;9.43;100.00;98600.84;5071603;28;19982;-76
2022/04/24 07:13:41;;;;;;;;;;;;;;;9.99;100.00;98610.88;5069457;28;20019;-76
2022/04/24 07:16:08;;;;;;;;;;;;;;;10.44;100.00;98618.28;5069271;28;19956;-74
2022/04/24 07:18:36;;;;;;;;;;;;;;;10.05;100.00;98614.75;5069938;28;19939;-76
2022/04/24 07:21:03;;;;;;;;;;;;;;;10.03;100.00;98603.22;5069035;28;19932;-76
2022/04/24 07:23:30;;;;;;;;;;;;;;;10.06;100.00;98610.72;5068264;28;19928;-77
2022/04/24 07:25:58;;;;;;;;;;;;;;;10.42;100.00;98617.16;5054837;28;19924;-76
2022/04/24 07:28:26;;;;;;;;;;;;;;;11.02;100.00;98605.34;5071881;28;19928;-76
2022/04/24 07:30:53;;;;;;;;;;;;;;;11.22;100.00;98614.41;5072556;28;19929;-76
2022/04/24 07:33:21;;;;;;;;;;;;;;;11.79;100.00;98608.91;5071645;28;19925;-76
2022/04/24 07:35:48;;;;;;;;;;;;;;;11.84;100.00;98604.78;5071910;28;19969;-75
2022/04/24 07:38:15;;;;;;;;;;;;;;;11.56;100.00;98614.69;5076430;28;19930;-76
2022/04/24 07:40:43;;;;;;;;;;;;;;;11.58;100.00;98617.84;5077284;28;19924;-76
2022/04/24 07:43:11;;;;;;;;;;;;;;;11.17;100.00;98617.72;5076397;28;19924;-77
2022/04/24 07:45:47;;;;;;;;;;;;;;;11.46;100.00;98618.56;5077379;28;19924;-77
2022/04/24 07:48:14;;;;;;;;;;;;;;;11.78;100.00;98606.53;5077580;28;20375;-75
2022/04/24 07:50:46;;;;;;;;;;;;;;;11.65;100.00;98620.47;5076220;28;19932;-75
2022/04/24 07:53:13;;;;;;;;;;;;;;;12.14;100.00;98621.09;5076710;28;20011;-75
2022/04/24 07:55:41;;;;;;;;;;;;;;;12.49;100.00;98618.03;5074515;28;20351;-75
2022/04/24 07:58:08;;;;;;;;;;;;;;;12.09;100.00;98616.81;5076026;28;20025;-75
2022/04/24 08:00:37;;;;;;;;;;;;;;;12.35;100.00;98618.44;5076436;28;19924;-75
2022/04/24 08:03:05;;;;;;;;;;;;;;;12.33;100.00;98620.13;5073158;28;19925;-77
2022/04/24 08:05:33;;;;;;;;;;;;;;;12.31;100.00;98608.59;5072645;28;19982;-76
2022/04/24 08:08:01;;;;;;;;;;;;;;;12.95;100.00;98627.00;5106310;28;19932;-76
2022/04/24 08:10:30;;;;;;;;;;;;;;;12.93;100.00;98607.81;5064962;28;19948;-77
2022/04/24 08:12:57;;;;;;;;;;;;;;;13.06;100.00;98608.63;5055962;28;20292;-76
2022/04/24 08:15:24;;;;;;;;;;;;;;;12.91;100.00;98601.06;5056179;28;20019;-76
2022/04/24 08:17:51;;;;;;;;;;;;;;;12.97;100.00;98604.88;5055207;28;19925;-76
2022/04/24 08:20:19;;;;;;;;;;;;;;;12.51;100.00;98607.13;5055288;28;19931;-76
2022/04/24 08:22:47;;;;;;;;;;;;;;;12.80;100.00;98609.06;5055220;28;19929;-77
2022/04/24 08:25:16;;;;;;;;;;;;;;;12.53;100.00;98613.09;5053842;28;19924;-76
2022/04/24 08:27:44;;;;;;;;;;;;;;;12.64;100.00;98607.94;5055127;28;19925;-76
2022/04/24 08:30:11;;;;;;;;;;;;;;;12.44;100.00;98609.38;5055566;28;20303;-76
2022/04/24 08:32:39;;;;;;;;;;;;;;;13.12;100.00;98606.00;5055555;28;19929;-77
2022/04/24 08:35:09;;;;;;;;;;;;;;;12.80;100.00;98614.69;5054291;28;19925;-76
2022/04/24 08:37:36;;;;;;;;;;;;;;;13.16;100.00;98609.50;5055543;28;19935;-76
2022/04/24 08:40:05;;;;;;;;;;;;;;;12.87;100.00;98608.84;5055304;28;19925;-76
2022/04/24 08:42:33;;;;;;;;;;;;;;;12.99;100.00;98608.03;5053996;28;19935;-77
2022/04/24 08:45:00;;;;;;;;;;;;;;;13.17;100.00;98597.84;5054891;28;19925;-76
2022/04/24 08:47:27;;;;;;;;;;;;;;;13.03;100.00;98603.91;5054236;28;20011;-77
2022/04/24 08:49:55;;;;;;;;;;;;;;;12.75;100.00;98602.00;5055460;28;19925;-76
2022/04/24 08:52:23;;;;;;;;;;;;;;;12.78;100.00;98598.31;5059541;28;20023;-76
2022/04/24 08:54:51;;;;;;;;;;;;;;;13.17;100.00;98599.84;5068876;28;20015;-75
2022/04/24 08:57:19;;;;;;;;;;;;;;;12.92;100.00;98605.47;5075380;28;19928;-75
2022/04/24 08:59:46;;;;;;;;;;;;;;;13.04;100.00;98599.84;5075911;28;19928;-75
2022/04/24 09:02:24;;;;;;;;;;;;;;;13.29;100.00;98597.03;5070577;28;19932;-76
2022/04/24 09:04:53;;;;;;;;;;;;;;;13.20;100.00;98587.72;5074231;28;19925;-77
2022/04/24 09:07:20;;;;;;;;;;;;;;;13.06;100.00;98579.78;5075102;28;19931;-77
2022/04/24 09:09:48;;;;;;;;;;;;;;;13.10;100.00;98586.06;5073302;28;19928;-77
2022/04/24 09:12:23;;;;;;;;;;;;;;;13.12;100.00;98589.19;5074564;28;19931;-77
2022/04/24 09:14:54;;;;;;;;;;;;;;;13.26;100.00;98580.31;5074723;28;19925;-77
2022/04/24 09:17:23;;;;;;;;;;;;;;;13.01;100.00;98583.16;5074736;28;20051;-77
2022/04/24 09:19:50;;;;;;;;;;;;;;;13.17;100.00;98588.63;5074713;28;19994;-77
2022/04/24 09:22:17;;;;;;;;;;;;;;;13.00;100.00;98592.78;5073370;28;19925;-77
2022/04/24 09:24:44;;;;;;;;;;;;;;;13.83;100.00;98594.69;5073330;28;20346;-77
2022/04/24 09:27:12;;;;;;;;;;;;;;;13.32;100.00;98600.94;5073233;28;19924;-78
2022/04/24 09:29:40;;;;;;;;;;;;;;;13.62;100.00;98597.47;5073354;28;20364;-78
2022/04/24 09:32:11;;;;;;;;;;;;;;;13.90;100.00;98590.84;5074304;28;19924;-78
2022/04/24 09:34:38;;;;;;;;;;;;;;;13.60;100.00;98600.72;5074331;28;20304;-78
2022/04/24 09:37:08;;;;;;;;;;;;;;;14.03;100.00;98605.59;5074392;28;19943;-78
2022/04/24 09:39:37;;;;;;;;;;;;;;;13.66;100.00;98609.38;5073979;28;19925;-78
2022/04/24 09:42:08;;;;;;;;;;;;;;;13.61;100.00;98598.72;5074200;28;19932;-78
2022/04/24 09:44:45;;;;;;;;;;;;;;;13.72;100.00;98607.56;5072970;28;19924;-78
2022/04/24 09:47:32;;;;;;;;;;;;;;;13.23;100.00;98606.44;5074357;28;19947;-78
2022/04/24 09:49:59;;;;;;;;;;;;;;;13.58;100.00;98616.47;5074160;28;20383;-78
2022/04/24 09:52:31;;;;;;;;;;;;;;;14.07;100.00;98623.88;5072735;28;20034;-78
2022/04/24 09:54:58;;;;;;;;;;;;;;;13.27;100.00;98632.38;5073691;28;19998;-77
2022/04/24 09:57:25;;;;;;;;;;;;;;;13.57;100.00;98628.94;5073164;28;19960;-78
2022/04/24 09:59:53;;;;;;;;;;;;;;;14.02;100.00;98632.13;5074290;28;19924;-78
2022/04/24 10:02:20;;;;;;;;;;;;;;;13.60;100.00;98628.78;5074079;28;19928;-78
2022/04/24 10:04:48;;;;;;;;;;;;;;;13.49;100.00;98633.22;5073744;28;19924;-78
2022/04/24 10:07:16;;;;;;;;;;;;;;;13.72;100.00;98618.78;5072533;28;19925;-78
2022/04/24 10:09:45;;;;;;;;;;;;;;;13.28;100.00;98617.91;5073444;28;19932;-78
2022/04/24 10:12:15;;;;;;;;;;;;;;;13.37;100.00;98603.97;5073390;28;19928;-78
2022/04/24 10:14:44;;;;;;;;;;;;;;;13.20;100.00;98615.78;5072537;28;19969;-78
2022/04/24 10:17:30;;;;;;;;;;;;;;;13.22;100.00;98625.31;5072524;28;19925;-78
2022/04/24 10:20:18;;;;;;;;;;;;;;;12.96;100.00;98622.97;5073650;28;19935;-78
2022/04/24 10:22:50;;;;;;;;;;;;;;;13.27;100.00;98616.31;5073312;28;19924;-78
2022/04/24 10:25:28;;;;;;;;;;;;;;;13.36;100.00;98604.41;5073247;28;19979;-78
2022/04/24 10:27:55;;;;;;;;;;;;;;;13.45;100.00;98610.13;5073643;28;19932;-78
2022/04/24 10:30:24;;;;;;;;;;;;;;;13.44;100.00;98608.53;5073558;28;20300;-78
2022/04/24 10:33:12;;;;;;;;;;;;;;;13.69;100.00;98616.88;5071955;28;19924;-78
2022/04/24 10:35:47;;;;;;;;;;;;;;;13.99;100.00;98607.75;5072023;28;19924;-77
2022/04/24 10:38:45;;;;;;;;;;;;;;;13.87;100.00;98619.84;5072159;28;20354;-78
2022/04/24 10:41:16;;;;;;;;;;;;;;;13.71;100.00;98617.19;5072100;28;19924;-78
2022/04/24 10:43:52;;;;;;;;;;;;;;;13.65;100.00;98616.19;5071818;28;19925;-78
2022/04/24 10:46:20;;;;;;;;;;;;;;;14.31;100.00;98619.38;5073195;28;19924;-78
2022/04/24 10:48:48;;;;;;;;;;;;;;;14.21;100.00;98609.31;5071819;28;20028;-77
2022/04/24 10:51:27;;;;;;;;;;;;;;;14.56;100.00;98598.75;5072911;28;19947;-77
2022/04/24 10:53:56;;;;;;;;;;;;;;;15.13;100.00;98612.09;5072963;28;19947;-78
2022/04/24 10:56:23;;;;;;;;;;;;;;;15.15;100.00;98625.72;5073038;28;19924;-78
2022/04/24 10:58:50;;;;;;;;;;;;;;;15.11;100.00;98628.69;5073121;28;20402;-79
2022/04/24 11:01:18;;;;;;;;;;;;;;;14.62;100.00;98619.41;5071821;28;20005;-79
2022/04/24 11:03:46;;;;;;;;;;;;;;;14.74;100.00;98617.75;5071692;28;20493;-78
2022/04/24 11:06:20;;;;;;;;;;;;;;;14.54;100.00;98609.69;5071679;28;19929;-78
2022/04/24 11:08:47;;;;;;;;;;;;;;;14.17;100.00;98622.72;5072640;28;19924;-78
2022/04/24 11:11:14;;;;;;;;;;;;;;;14.08;100.00;98621.88;5072999;28;19951;-78
2022/04/24 11:13:42;;;;;;;;;;;;;;;14.00;100.00;98624.16;5071553;28;19925;-78
2022/04/24 11:16:09;;;;;;;;;;;;;;;14.95;100.00;98612.03;5072939;28;19934;-79
2022/04/24 11:18:36;;;;;;;;;;;;;;;15.43;100.00;98616.13;5072707;28;19930;-79
2022/04/24 11:21:04;;;;;;;;;;;;;;;15.47;100.00;98614.72;5072534;28;20022;-79
2022/04/24 11:23:33;;;;;;;;;;;;;;;15.37;100.00;98630.00;5071714;28;19943;-79
2022/04/24 11:26:02;;;;;;;;;;;;;;;14.32;100.00;98625.81;5071667;28;19931;-78
2022/04/24 11:28:33;;;;;;;;;;;;;;;14.18;100.00;98634.72;5071602;28;20294;-79
2022/04/24 11:31:13;;;;;;;;;;;;;;;14.25;100.00;98634.50;5072644;28;19925;-79
2022/04/24 11:33:54;;;;;;;;;;;;;;;14.18;100.00;98631.91;5072490;28;20453;-78
2022/04/24 11:36:22;;;;;;;;;;;;;;;14.27;100.00;98634.81;5072431;28;19960;-79
2022/04/24 11:38:50;;;;;;;;;;;;;;;14.22;100.00;98636.16;5072663;28;20433;-79
2022/04/24 11:41:20;;;;;;;;;;;;;;;14.66;100.00;98628.47;5071498;28;20463;-79
2022/04/24 11:43:48;;;;;;;;;;;;;;;15.37;100.00;98635.66;5071394;28;19943;-79
2022/04/24 11:51:50;;;;;;;;;;;;;;;14.09;100.00;98624.22;5072473;28;19924;-78
2022/04/24 11:54:17;;;;;;;;;;;;;;;14.84;100.00;98625.78;5072548;28;19970;-78
2022/04/24 11:56:48;;;;;;;;;;;;;;;14.98;100.00;98630.81;5071247;28;19924;-79
2022/04/24 11:59:19;;;;;;;;;;;;;;;14.74;100.00;98638.22;5071058;28;19929;-79
2022/04/24 12:01:59;;;;;;;;;;;;;;;14.55;100.00;98625.31;5072592;28;19924;-79
2022/04/24 12:04:31;;;;;;;;;;;;;;;14.66;100.00;98620.03;5071040;28;20011;-79
2022/04/24 12:07:03;;;;;;;;;;;;;;;15.27;100.00;98608.72;5071168;28;19970;-79
2022/04/24 12:09:30;;;;;;;;;;;;;;;15.49;100.00;98615.06;5072219;28;20014;-78
2022/04/24 12:12:09;;;;;;;;;;;;;;;15.41;100.00;98608.16;5072156;28;19928;-79
2022/04/24 12:14:37;;;;;;;;;;;;;;;15.59;100.00;98610.97;5054561;28;19925;-79
2022/04/24 12:17:08;;;;;;;;;;;;;;;14.94;100.00;98606.88;5072180;28;19925;-79
2022/04/24 12:19:36;;;;;;;;;;;;;;;14.82;100.00;98611.38;5071497;28;19925;-79
2022/04/24 12:22:07;;;;;;;;;;;;;;;14.98;100.00;98624.44;5074805;28;19932;-79
2022/04/24 12:24:53;;;;;;;;;;;;;;;15.40;100.00;98617.84;5074565;28;20023;-79
2022/04/24 12:27:20;;;;;;;;;;;;;;;15.51;100.00;98615.34;5075744;28;19931;-79
2022/04/24 12:29:49;;;;;;;;;;;;;;;14.90;100.00;98631.56;5075744;28;20398;-79
2022/04/24 12:32:17;;;;;;;;;;;;;;;14.74;100.00;98621.34;5074360;28;20422;-79
2022/04/24 12:34:47;;;;;;;;;;;;;;;14.90;100.00;98635.19;5074245;28;20348;-79
2022/04/24 12:37:15;;;;;;;;;;;;;;;14.96;100.00;98640.97;5074282;28;19931;-79
2022/04/24 12:39:51;;;;;;;;;;;;;;;14.78;100.00;98632.47;5075104;28;19925;-79
2022/04/24 12:42:20;;;;;;;;;;;;;;;14.73;100.00;98619.78;5075202;28;19974;-79
2022/04/24 12:44:48;;;;;;;;;;;;;;;15.03;100.00;98627.41;5073970;28;19978;-79
2022/04/24 12:47:15;;;;;;;;;;;;;;;15.16;100.00;98624.47;5075323;28;20375;-79
2022/04/24 12:49:44;;;;;;;;;;;;;;;14.77;100.00;98617.59;5057411;28;19924;-78
2022/04/24 12:52:12;;;;;;;;;;;;;;;14.67;100.00;98629.28;5057366;28;19932;-78
2022/04/24 12:54:39;;;;;;;;;;;;;;;14.84;100.00;98634.22;5074045;28;20077;-79
2022/04/24 12:57:09;;;;;;;;;;;;;;;14.61;100.00;98631.13;5074105;28;19933;-79